sensor_id;sensor_type;location;lat;lon;timestamp;P1;durP1;ratioP1;P2;durP2;ratioP2
64208;SDS011;50527;52.414;13.226;2023-05-16T00:00:53;5.00;;;1.85;;
64208;SDS011;50527;52.414;13.226;2023-05-16T00:03:19;4.70;;;1.80;;
64208;SDS011;50527;52.414;13.226;2023-05-16T00:05:44;3.88;;;2.10;;
64208;SDS011;50527;52.414;13.226;2023-05-16T00:08:10;6.15;;;2.65;;
64208;SDS011;50527;52.414;13.226;2023-05-16T00:10:36;6.63;;;2.47;;
64208;SDS011;50527;52.414;13.226;2023-05-16T00:13:02;5.15;;;2.30;;
64208;SDS011;50527;52.414;13.226;2023-05-16T00:15:27;5.95;;;2.60;;
64208;SDS011;50527;52.414;13.226;2023-05-16T00:17:54;10.25;;;3.30;;
64208;SDS011;50527;52.414;13.226;2023-05-16T00:20:22;9.55;;;3.10;;
64208;SDS011;50527;52.414;13.226;2023-05-16T00:22:48;7.95;;;3.17;;
64208;SDS011;50527;52.414;13.226;2023-05-16T00:25:14;8.25;;;3.63;;
64208;SDS011;50527;52.414;13.226;2023-05-16T00:27:40;7.28;;;2.88;;
64208;SDS011;50527;52.414;13.226;2023-05-16T00:30:06;5.03;;;2.40;;
64208;SDS011;50527;52.414;13.226;2023-05-16T00:32:32;5.20;;;2.50;;
64208;SDS011;50527;52.414;13.226;2023-05-16T00:34:57;6.18;;;3.00;;
64208;SDS011;50527;52.414;13.226;2023-05-16T00:37:23;8.63;;;3.75;;
64208;SDS011;50527;52.414;13.226;2023-05-16T00:39:48;8.18;;;3.50;;
64208;SDS011;50527;52.414;13.226;2023-05-16T00:42:14;8.32;;;3.20;;
64208;SDS011;50527;52.414;13.226;2023-05-16T00:44:39;6.15;;;2.80;;
64208;SDS011;50527;52.414;13.226;2023-05-16T00:47:05;9.88;;;3.60;;
64208;SDS011;50527;52.414;13.226;2023-05-16T00:49:31;7.18;;;2.95;;
64208;SDS011;50527;52.414;13.226;2023-05-16T00:51:57;6.28;;;3.30;;
64208;SDS011;50527;52.414;13.226;2023-05-16T00:54:23;6.78;;;2.80;;
64208;SDS011;50527;52.414;13.226;2023-05-16T00:56:52;8.23;;;2.83;;
64208;SDS011;50527;52.414;13.226;2023-05-16T00:59:18;7.57;;;2.97;;
64208;SDS011;50527;52.414;13.226;2023-05-16T01:01:45;4.93;;;2.70;;
64208;SDS011;50527;52.414;13.226;2023-05-16T01:04:11;6.97;;;2.95;;
64208;SDS011;50527;52.414;13.226;2023-05-16T01:06:37;9.73;;;3.30;;
64208;SDS011;50527;52.414;13.226;2023-05-16T01:09:03;5.35;;;2.75;;
64208;SDS011;50527;52.414;13.226;2023-05-16T01:11:42;6.32;;;3.00;;
64208;SDS011;50527;52.414;13.226;2023-05-16T01:17:28;8.80;;;2.70;;
64208;SDS011;50527;52.414;13.226;2023-05-16T01:20:01;7.50;;;2.92;;
64208;SDS011;50527;52.414;13.226;2023-05-16T01:25:21;7.25;;;2.85;;
64208;SDS011;50527;52.414;13.226;2023-05-16T01:28:12;5.25;;;2.85;;
64208;SDS011;50527;52.414;13.226;2023-05-16T01:30:41;6.85;;;2.83;;
64208;SDS011;50527;52.414;13.226;2023-05-16T01:33:07;7.80;;;2.97;;
64208;SDS011;50527;52.414;13.226;2023-05-16T01:35:34;7.55;;;2.85;;
64208;SDS011;50527;52.414;13.226;2023-05-16T01:38:20;9.50;;;3.40;;
64208;SDS011;50527;52.414;13.226;2023-05-16T01:43:41;6.07;;;2.80;;
64208;SDS011;50527;52.414;13.226;2023-05-16T01:46:10;5.22;;;2.80;;
64208;SDS011;50527;52.414;13.226;2023-05-16T01:48:43;5.13;;;2.60;;
64208;SDS011;50527;52.414;13.226;2023-05-16T01:51:16;10.27;;;3.08;;
64208;SDS011;50527;52.414;13.226;2023-05-16T01:53:45;7.97;;;2.83;;
64208;SDS011;50527;52.414;13.226;2023-05-16T01:56:12;8.13;;;2.42;;
64208;SDS011;50527;52.414;13.226;2023-05-16T01:58:40;7.25;;;2.70;;
64208;SDS011;50527;52.414;13.226;2023-05-16T02:01:06;8.27;;;3.10;;
64208;SDS011;50527;52.414;13.226;2023-05-16T02:03:32;5.85;;;2.45;;
64208;SDS011;50527;52.414;13.226;2023-05-16T02:05:58;6.13;;;2.60;;
64208;SDS011;50527;52.414;13.226;2023-05-16T02:08:25;6.85;;;2.60;;
64208;SDS011;50527;52.414;13.226;2023-05-16T02:10:52;7.68;;;2.50;;
64208;SDS011;50527;52.414;13.226;2023-05-16T02:13:18;7.18;;;2.65;;
64208;SDS011;50527;52.414;13.226;2023-05-16T02:15:43;6.82;;;2.33;;
64208;SDS011;50527;52.414;13.226;2023-05-16T02:18:09;7.90;;;2.50;;
64208;SDS011;50527;52.414;13.226;2023-05-16T02:20:35;7.18;;;2.17;;
64208;SDS011;50527;52.414;13.226;2023-05-16T02:23:01;7.25;;;2.40;;
64208;SDS011;50527;52.414;13.226;2023-05-16T02:25:27;5.97;;;2.30;;
64208;SDS011;50527;52.414;13.226;2023-05-16T02:27:53;4.47;;;2.45;;
64208;SDS011;50527;52.414;13.226;2023-05-16T02:30:18;5.07;;;2.53;;
64208;SDS011;50527;52.414;13.226;2023-05-16T02:32:44;5.13;;;2.30;;
64208;SDS011;50527;52.414;13.226;2023-05-16T02:35:10;6.75;;;2.58;;
64208;SDS011;50527;52.414;13.226;2023-05-16T02:37:36;6.97;;;2.90;;
64208;SDS011;50527;52.414;13.226;2023-05-16T02:40:02;6.00;;;2.67;;
64208;SDS011;50527;52.414;13.226;2023-05-16T02:42:29;6.97;;;2.67;;
64208;SDS011;50527;52.414;13.226;2023-05-16T02:44:55;9.82;;;3.08;;
64208;SDS011;50527;52.414;13.226;2023-05-16T02:47:21;7.78;;;2.80;;
64208;SDS011;50527;52.414;13.226;2023-05-16T02:49:47;6.28;;;2.70;;
64208;SDS011;50527;52.414;13.226;2023-05-16T02:52:12;7.50;;;2.83;;
64208;SDS011;50527;52.414;13.226;2023-05-16T02:54:38;7.18;;;2.70;;
64208;SDS011;50527;52.414;13.226;2023-05-16T02:57:04;9.05;;;3.00;;
64208;SDS011;50527;52.414;13.226;2023-05-16T02:59:29;6.13;;;2.60;;
64208;SDS011;50527;52.414;13.226;2023-05-16T03:01:55;7.03;;;3.20;;
64208;SDS011;50527;52.414;13.226;2023-05-16T03:04:20;4.72;;;3.00;;
64208;SDS011;50527;52.414;13.226;2023-05-16T03:06:47;8.07;;;2.90;;
64208;SDS011;50527;52.414;13.226;2023-05-16T03:09:15;5.35;;;2.75;;
64208;SDS011;50527;52.414;13.226;2023-05-16T03:11:40;8.68;;;3.83;;
64208;SDS011;50527;52.414;13.226;2023-05-16T03:14:06;6.88;;;3.40;;
64208;SDS011;50527;52.414;13.226;2023-05-16T03:16:32;6.07;;;3.20;;
64208;SDS011;50527;52.414;13.226;2023-05-16T03:18:58;6.25;;;2.90;;
64208;SDS011;50527;52.414;13.226;2023-05-16T03:21:23;8.20;;;3.10;;
64208;SDS011;50527;52.414;13.226;2023-05-16T03:23:49;9.32;;;2.92;;
64208;SDS011;50527;52.414;13.226;2023-05-16T03:26:14;7.82;;;2.92;;
64208;SDS011;50527;52.414;13.226;2023-05-16T03:28:40;8.63;;;3.10;;
64208;SDS011;50527;52.414;13.226;2023-05-16T03:31:05;6.63;;;3.28;;
64208;SDS011;50527;52.414;13.226;2023-05-16T03:33:31;7.22;;;3.30;;
64208;SDS011;50527;52.414;13.226;2023-05-16T03:35:56;8.38;;;3.17;;
64208;SDS011;50527;52.414;13.226;2023-05-16T03:38:22;6.13;;;3.20;;
64208;SDS011;50527;52.414;13.226;2023-05-16T03:40:47;7.15;;;3.20;;
64208;SDS011;50527;52.414;13.226;2023-05-16T03:43:13;6.00;;;2.97;;
64208;SDS011;50527;52.414;13.226;2023-05-16T03:45:38;7.82;;;3.63;;
64208;SDS011;50527;52.414;13.226;2023-05-16T03:48:04;7.40;;;3.28;;
64208;SDS011;50527;52.414;13.226;2023-05-16T03:50:30;8.50;;;3.90;;
64208;SDS011;50527;52.414;13.226;2023-05-16T03:52:55;6.18;;;3.47;;
64208;SDS011;50527;52.414;13.226;2023-05-16T03:55:21;8.13;;;3.30;;
64208;SDS011;50527;52.414;13.226;2023-05-16T03:57:46;7.03;;;3.05;;
64208;SDS011;50527;52.414;13.226;2023-05-16T04:00:13;9.35;;;3.50;;
64208;SDS011;50527;52.414;13.226;2023-05-16T04:02:39;9.52;;;3.40;;
64208;SDS011;50527;52.414;13.226;2023-05-16T04:05:06;8.95;;;3.45;;
64208;SDS011;50527;52.414;13.226;2023-05-16T04:07:32;12.20;;;3.38;;
64208;SDS011;50527;52.414;13.226;2023-05-16T04:09:58;7.90;;;3.47;;
64208;SDS011;50527;52.414;13.226;2023-05-16T04:12:23;6.07;;;3.25;;
64208;SDS011;50527;52.414;13.226;2023-05-16T04:14:49;8.32;;;3.85;;
64208;SDS011;50527;52.414;13.226;2023-05-16T04:17:14;9.15;;;3.38;;
64208;SDS011;50527;52.414;13.226;2023-05-16T04:19:40;7.20;;;3.28;;
64208;SDS011;50527;52.414;13.226;2023-05-16T04:22:05;10.70;;;3.58;;
64208;SDS011;50527;52.414;13.226;2023-05-16T04:24:31;10.07;;;3.47;;
64208;SDS011;50527;52.414;13.226;2023-05-16T04:26:57;9.20;;;3.35;;
64208;SDS011;50527;52.414;13.226;2023-05-16T04:29:23;7.80;;;3.38;;
64208;SDS011;50527;52.414;13.226;2023-05-16T04:31:48;8.05;;;3.60;;
64208;SDS011;50527;52.414;13.226;2023-05-16T04:34:14;9.75;;;3.25;;
64208;SDS011;50527;52.414;13.226;2023-05-16T04:36:40;9.02;;;3.55;;
64208;SDS011;50527;52.414;13.226;2023-05-16T04:39:06;7.97;;;3.30;;
64208;SDS011;50527;52.414;13.226;2023-05-16T04:41:31;7.05;;;3.28;;
64208;SDS011;50527;52.414;13.226;2023-05-16T04:43:57;6.32;;;3.50;;
64208;SDS011;50527;52.414;13.226;2023-05-16T04:46:24;8.55;;;3.20;;
64208;SDS011;50527;52.414;13.226;2023-05-16T04:48:50;6.22;;;3.00;;
64208;SDS011;50527;52.414;13.226;2023-05-16T04:51:16;10.30;;;3.50;;
64208;SDS011;50527;52.414;13.226;2023-05-16T04:53:41;10.10;;;3.58;;
64208;SDS011;50527;52.414;13.226;2023-05-16T04:56:07;8.32;;;3.65;;
64208;SDS011;50527;52.414;13.226;2023-05-16T04:58:32;7.78;;;3.33;;
64208;SDS011;50527;52.414;13.226;2023-05-16T05:00:58;7.53;;;3.25;;
64208;SDS011;50527;52.414;13.226;2023-05-16T05:03:23;10.82;;;3.63;;
64208;SDS011;50527;52.414;13.226;2023-05-16T05:05:49;6.22;;;3.47;;
64208;SDS011;50527;52.414;13.226;2023-05-16T05:08:15;6.70;;;3.33;;
64208;SDS011;50527;52.414;13.226;2023-05-16T05:10:41;6.68;;;3.38;;
64208;SDS011;50527;52.414;13.226;2023-05-16T05:13:07;5.90;;;2.85;;
64208;SDS011;50527;52.414;13.226;2023-05-16T05:15:34;9.82;;;3.15;;
64208;SDS011;50527;52.414;13.226;2023-05-16T05:18:00;11.30;;;3.95;;
64208;SDS011;50527;52.414;13.226;2023-05-16T05:20:25;9.10;;;3.13;;
64208;SDS011;50527;52.414;13.226;2023-05-16T05:22:51;6.22;;;3.33;;
64208;SDS011;50527;52.414;13.226;2023-05-16T05:25:16;8.55;;;3.53;;
64208;SDS011;50527;52.414;13.226;2023-05-16T05:27:42;7.70;;;3.95;;
64208;SDS011;50527;52.414;13.226;2023-05-16T05:30:07;11.50;;;3.63;;
64208;SDS011;50527;52.414;13.226;2023-05-16T05:32:33;7.82;;;3.58;;
64208;SDS011;50527;52.414;13.226;2023-05-16T05:34:59;12.55;;;3.78;;
64208;SDS011;50527;52.414;13.226;2023-05-16T05:37:25;10.02;;;3.72;;
64208;SDS011;50527;52.414;13.226;2023-05-16T05:39:51;6.68;;;3.35;;
64208;SDS011;50527;52.414;13.226;2023-05-16T05:42:16;9.63;;;3.47;;
64208;SDS011;50527;52.414;13.226;2023-05-16T05:44:41;7.13;;;3.22;;
64208;SDS011;50527;52.414;13.226;2023-05-16T05:47:07;10.57;;;3.28;;
64208;SDS011;50527;52.414;13.226;2023-05-16T05:49:33;7.45;;;3.10;;
64208;SDS011;50527;52.414;13.226;2023-05-16T05:51:59;11.70;;;3.83;;
64208;SDS011;50527;52.414;13.226;2023-05-16T05:54:25;6.03;;;3.20;;
64208;SDS011;50527;52.414;13.226;2023-05-16T05:56:51;6.68;;;2.90;;
64208;SDS011;50527;52.414;13.226;2023-05-16T05:59:16;6.20;;;3.17;;
64208;SDS011;50527;52.414;13.226;2023-05-16T06:01:42;5.38;;;2.70;;
64208;SDS011;50527;52.414;13.226;2023-05-16T06:04:08;7.95;;;3.00;;
64208;SDS011;50527;52.414;13.226;2023-05-16T06:06:35;5.25;;;2.63;;
64208;SDS011;50527;52.414;13.226;2023-05-16T06:09:01;6.10;;;2.42;;
64208;SDS011;50527;52.414;13.226;2023-05-16T06:11:26;7.03;;;2.40;;
64208;SDS011;50527;52.414;13.226;2023-05-16T06:13:52;8.25;;;2.50;;
64208;SDS011;50527;52.414;13.226;2023-05-16T06:16:17;5.70;;;2.58;;
64208;SDS011;50527;52.414;13.226;2023-05-16T06:18:43;9.93;;;2.67;;
64208;SDS011;50527;52.414;13.226;2023-05-16T06:21:09;6.03;;;3.00;;
64208;SDS011;50527;52.414;13.226;2023-05-16T06:23:35;7.72;;;2.72;;
64208;SDS011;50527;52.414;13.226;2023-05-16T06:26:01;5.45;;;2.40;;
64208;SDS011;50527;52.414;13.226;2023-05-16T06:28:27;6.25;;;2.28;;
64208;SDS011;50527;52.414;13.226;2023-05-16T06:30:53;6.35;;;2.00;;
64208;SDS011;50527;52.414;13.226;2023-05-16T06:33:18;5.68;;;1.95;;
64208;SDS011;50527;52.414;13.226;2023-05-16T06:35:44;3.47;;;1.83;;
64208;SDS011;50527;52.414;13.226;2023-05-16T06:38:10;3.85;;;1.40;;
64208;SDS011;50527;52.414;13.226;2023-05-16T06:40:36;3.83;;;1.80;;
64208;SDS011;50527;52.414;13.226;2023-05-16T06:43:01;5.50;;;1.60;;
64208;SDS011;50527;52.414;13.226;2023-05-16T06:45:27;4.00;;;1.65;;
64208;SDS011;50527;52.414;13.226;2023-05-16T06:47:52;3.42;;;1.38;;
64208;SDS011;50527;52.414;13.226;2023-05-16T06:50:19;2.38;;;1.35;;
64208;SDS011;50527;52.414;13.226;2023-05-16T06:52:44;6.38;;;1.50;;
64208;SDS011;50527;52.414;13.226;2023-05-16T06:55:10;3.03;;;1.30;;
64208;SDS011;50527;52.414;13.226;2023-05-16T06:57:36;2.60;;;1.40;;
64208;SDS011;50527;52.414;13.226;2023-05-16T07:00:01;3.35;;;1.10;;
64208;SDS011;50527;52.414;13.226;2023-05-16T07:02:27;1.98;;;1.13;;
64208;SDS011;50527;52.414;13.226;2023-05-16T07:04:53;3.58;;;1.30;;
64208;SDS011;50527;52.414;13.226;2023-05-16T07:07:19;4.25;;;1.25;;
64208;SDS011;50527;52.414;13.226;2023-05-16T07:09:44;4.47;;;1.27;;
64208;SDS011;50527;52.414;13.226;2023-05-16T07:12:10;1.92;;;0.90;;
64208;SDS011;50527;52.414;13.226;2023-05-16T07:14:35;3.13;;;1.00;;
64208;SDS011;50527;52.414;13.226;2023-05-16T07:17:01;5.30;;;1.30;;
64208;SDS011;50527;52.414;13.226;2023-05-16T07:19:26;1.67;;;0.80;;
64208;SDS011;50527;52.414;13.226;2023-05-16T07:21:52;1.83;;;0.85;;
64208;SDS011;50527;52.414;13.226;2023-05-16T07:24:17;3.63;;;1.30;;
64208;SDS011;50527;52.414;13.226;2023-05-16T07:26:43;3.90;;;1.48;;
64208;SDS011;50527;52.414;13.226;2023-05-16T07:29:09;3.30;;;1.02;;
64208;SDS011;50527;52.414;13.226;2023-05-16T07:31:34;1.38;;;0.80;;
64208;SDS011;50527;52.414;13.226;2023-05-16T07:34:00;1.88;;;0.82;;
64208;SDS011;50527;52.414;13.226;2023-05-16T07:36:25;3.63;;;1.10;;
64208;SDS011;50527;52.414;13.226;2023-05-16T07:38:51;1.92;;;0.85;;
64208;SDS011;50527;52.414;13.226;2023-05-16T07:41:16;3.53;;;1.05;;
64208;SDS011;50527;52.414;13.226;2023-05-16T07:43:41;1.80;;;0.73;;
64208;SDS011;50527;52.414;13.226;2023-05-16T07:46:07;2.85;;;0.80;;
64208;SDS011;50527;52.414;13.226;2023-05-16T07:48:32;2.80;;;1.02;;
64208;SDS011;50527;52.414;13.226;2023-05-16T07:50:58;4.40;;;1.00;;
64208;SDS011;50527;52.414;13.226;2023-05-16T07:53:23;4.55;;;1.10;;
64208;SDS011;50527;52.414;13.226;2023-05-16T07:55:49;4.22;;;1.00;;
64208;SDS011;50527;52.414;13.226;2023-05-16T07:58:14;2.83;;;0.70;;
64208;SDS011;50527;52.414;13.226;2023-05-16T08:00:40;1.58;;;0.63;;
64208;SDS011;50527;52.414;13.226;2023-05-16T08:03:06;1.83;;;0.80;;
64208;SDS011;50527;52.414;13.226;2023-05-16T08:05:31;1.92;;;0.85;;
64208;SDS011;50527;52.414;13.226;2023-05-16T08:07:57;4.32;;;0.93;;
64208;SDS011;50527;52.414;13.226;2023-05-16T08:10:22;2.40;;;0.80;;
64208;SDS011;50527;52.414;13.226;2023-05-16T08:12:48;1.10;;;0.70;;
64208;SDS011;50527;52.414;13.226;2023-05-16T08:15:13;2.38;;;0.73;;
64208;SDS011;50527;52.414;13.226;2023-05-16T08:17:39;2.00;;;0.80;;
64208;SDS011;50527;52.414;13.226;2023-05-16T08:20:05;3.05;;;0.88;;
64208;SDS011;50527;52.414;13.226;2023-05-16T08:22:31;2.38;;;0.70;;
64208;SDS011;50527;52.414;13.226;2023-05-16T08:24:57;2.72;;;1.08;;
64208;SDS011;50527;52.414;13.226;2023-05-16T08:27:24;2.95;;;0.98;;
64208;SDS011;50527;52.414;13.226;2023-05-16T08:29:50;1.67;;;0.80;;
64208;SDS011;50527;52.414;13.226;2023-05-16T08:32:16;1.60;;;0.85;;
64208;SDS011;50527;52.414;13.226;2023-05-16T08:34:41;3.35;;;1.00;;
64208;SDS011;50527;52.414;13.226;2023-05-16T08:37:07;3.28;;;0.70;;
64208;SDS011;50527;52.414;13.226;2023-05-16T08:39:32;1.75;;;0.70;;
64208;SDS011;50527;52.414;13.226;2023-05-16T08:41:58;3.35;;;0.70;;
64208;SDS011;50527;52.414;13.226;2023-05-16T08:44:24;1.85;;;0.77;;
64208;SDS011;50527;52.414;13.226;2023-05-16T08:46:51;2.65;;;0.80;;
64208;SDS011;50527;52.414;13.226;2023-05-16T08:49:18;5.85;;;1.00;;
64208;SDS011;50527;52.414;13.226;2023-05-16T08:51:47;1.35;;;0.75;;
64208;SDS011;50527;52.414;13.226;2023-05-16T08:54:15;4.25;;;0.90;;
64208;SDS011;50527;52.414;13.226;2023-05-16T08:56:43;1.35;;;0.70;;
64208;SDS011;50527;52.414;13.226;2023-05-16T08:59:10;2.85;;;0.93;;
64208;SDS011;50527;52.414;13.226;2023-05-16T09:01:36;2.00;;;0.60;;
64208;SDS011;50527;52.414;13.226;2023-05-16T09:04:03;0.77;;;0.50;;
64208;SDS011;50527;52.414;13.226;2023-05-16T09:06:31;3.15;;;0.63;;
64208;SDS011;50527;52.414;13.226;2023-05-16T09:08:57;2.55;;;0.60;;
64208;SDS011;50527;52.414;13.226;2023-05-16T09:11:22;2.90;;;0.73;;
64208;SDS011;50527;52.414;13.226;2023-05-16T09:13:48;2.70;;;0.75;;
64208;SDS011;50527;52.414;13.226;2023-05-16T09:16:15;1.10;;;0.50;;
64208;SDS011;50527;52.414;13.226;2023-05-16T09:18:42;1.75;;;0.55;;
64208;SDS011;50527;52.414;13.226;2023-05-16T09:21:10;1.33;;;0.60;;
64208;SDS011;50527;52.414;13.226;2023-05-16T09:23:36;4.35;;;0.75;;
64208;SDS011;50527;52.414;13.226;2023-05-16T09:26:02;3.75;;;0.55;;
64208;SDS011;50527;52.414;13.226;2023-05-16T09:28:29;2.42;;;0.50;;
64208;SDS011;50527;52.414;13.226;2023-05-16T09:30:55;1.33;;;0.60;;
64208;SDS011;50527;52.414;13.226;2023-05-16T09:33:23;5.13;;;1.17;;
64208;SDS011;50527;52.414;13.226;2023-05-16T09:35:55;5.97;;;1.00;;
64208;SDS011;50527;52.414;13.226;2023-05-16T09:38:25;2.25;;;0.50;;
64208;SDS011;50527;52.414;13.226;2023-05-16T09:40:52;1.60;;;0.52;;
64208;SDS011;50527;52.414;13.226;2023-05-16T09:43:19;4.32;;;1.33;;
64208;SDS011;50527;52.414;13.226;2023-05-16T09:45:47;2.60;;;0.70;;
64208;SDS011;50527;52.414;13.226;2023-05-16T09:48:13;1.73;;;0.77;;
64208;SDS011;50527;52.414;13.226;2023-05-16T09:50:45;1.67;;;0.25;;
64208;SDS011;50527;52.414;13.226;2023-05-16T09:53:13;1.97;;;0.50;;
64208;SDS011;50527;52.414;13.226;2023-05-16T09:55:39;2.05;;;0.60;;
64208;SDS011;50527;52.414;13.226;2023-05-16T09:58:04;2.35;;;0.60;;
64208;SDS011;50527;52.414;13.226;2023-05-16T10:00:31;6.78;;;0.80;;
64208;SDS011;50527;52.414;13.226;2023-05-16T10:02:57;3.95;;;0.82;;
64208;SDS011;50527;52.414;13.226;2023-05-16T10:05:25;5.20;;;0.75;;
64208;SDS011;50527;52.414;13.226;2023-05-16T10:07:51;5.38;;;0.90;;
64208;SDS011;50527;52.414;13.226;2023-05-16T10:10:20;6.63;;;0.60;;
64208;SDS011;50527;52.414;13.226;2023-05-16T10:12:46;2.13;;;0.60;;
64208;SDS011;50527;52.414;13.226;2023-05-16T10:15:12;6.18;;;0.70;;
64208;SDS011;50527;52.414;13.226;2023-05-16T10:17:39;3.42;;;0.75;;
64208;SDS011;50527;52.414;13.226;2023-05-16T10:20:07;3.17;;;0.70;;
64208;SDS011;50527;52.414;13.226;2023-05-16T10:22:35;1.77;;;0.60;;
64208;SDS011;50527;52.414;13.226;2023-05-16T10:25:07;3.15;;;0.50;;
64208;SDS011;50527;52.414;13.226;2023-05-16T10:27:44;3.67;;;0.88;;
64208;SDS011;50527;52.414;13.226;2023-05-16T10:30:11;7.03;;;0.55;;
64208;SDS011;50527;52.414;13.226;2023-05-16T10:32:37;2.90;;;0.60;;
64208;SDS011;50527;52.414;13.226;2023-05-16T10:35:03;4.15;;;0.50;;
64208;SDS011;50527;52.414;13.226;2023-05-16T10:37:29;5.70;;;0.60;;
64208;SDS011;50527;52.414;13.226;2023-05-16T10:39:56;4.88;;;0.60;;
64208;SDS011;50527;52.414;13.226;2023-05-16T10:42:24;2.75;;;0.40;;
64208;SDS011;50527;52.414;13.226;2023-05-16T10:44:52;3.38;;;0.70;;
64208;SDS011;50527;52.414;13.226;2023-05-16T10:47:20;2.42;;;0.65;;
64208;SDS011;50527;52.414;13.226;2023-05-16T10:49:45;6.07;;;0.85;;
64208;SDS011;50527;52.414;13.226;2023-05-16T10:52:11;4.70;;;0.57;;
64208;SDS011;50527;52.414;13.226;2023-05-16T10:54:40;4.85;;;0.70;;
64208;SDS011;50527;52.414;13.226;2023-05-16T10:59:43;8.18;;;0.82;;
64208;SDS011;50527;52.414;13.226;2023-05-16T11:02:26;6.75;;;0.90;;
64208;SDS011;50527;52.414;13.226;2023-05-16T11:04:54;6.40;;;1.13;;
64208;SDS011;50527;52.414;13.226;2023-05-16T11:07:21;4.47;;;0.75;;
64208;SDS011;50527;52.414;13.226;2023-05-16T11:09:52;2.58;;;0.60;;
64208;SDS011;50527;52.414;13.226;2023-05-16T11:12:37;5.70;;;0.82;;
64208;SDS011;50527;52.414;13.226;2023-05-16T11:15:18;4.90;;;0.50;;
64208;SDS011;50527;52.414;13.226;2023-05-16T11:20:26;2.38;;;0.50;;
64208;SDS011;50527;52.414;13.226;2023-05-16T11:25:44;4.43;;;0.68;;
64208;SDS011;50527;52.414;13.226;2023-05-16T11:28:13;10.43;;;0.90;;
64208;SDS011;50527;52.414;13.226;2023-05-16T11:30:42;8.40;;;0.73;;
64208;SDS011;50527;52.414;13.226;2023-05-16T11:33:13;4.75;;;0.50;;
64208;SDS011;50527;52.414;13.226;2023-05-16T11:35:40;1.83;;;0.50;;
64208;SDS011;50527;52.414;13.226;2023-05-16T11:38:10;2.78;;;0.40;;
64208;SDS011;50527;52.414;13.226;2023-05-16T11:40:40;5.43;;;0.63;;
64208;SDS011;50527;52.414;13.226;2023-05-16T11:43:06;6.30;;;0.70;;
64208;SDS011;50527;52.414;13.226;2023-05-16T11:45:32;7.50;;;0.90;;
64208;SDS011;50527;52.414;13.226;2023-05-16T11:48:00;3.42;;;0.52;;
64208;SDS011;50527;52.414;13.226;2023-05-16T11:50:28;7.40;;;1.05;;
64208;SDS011;50527;52.414;13.226;2023-05-16T11:52:54;13.27;;;0.93;;
64208;SDS011;50527;52.414;13.226;2023-05-16T11:55:22;5.93;;;0.90;;
64208;SDS011;50527;52.414;13.226;2023-05-16T11:57:50;5.30;;;0.80;;
64208;SDS011;50527;52.414;13.226;2023-05-16T12:00:22;7.78;;;0.60;;
64208;SDS011;50527;52.414;13.226;2023-05-16T12:02:50;8.25;;;0.82;;
64208;SDS011;50527;52.414;13.226;2023-05-16T12:05:16;7.63;;;0.60;;
64208;SDS011;50527;52.414;13.226;2023-05-16T12:07:44;8.23;;;0.90;;
64208;SDS011;50527;52.414;13.226;2023-05-16T12:10:12;4.70;;;0.60;;
64208;SDS011;50527;52.414;13.226;2023-05-16T12:12:40;4.28;;;0.82;;
64208;SDS011;50527;52.414;13.226;2023-05-16T12:15:07;5.15;;;0.60;;
64208;SDS011;50527;52.414;13.226;2023-05-16T12:17:34;3.47;;;0.43;;
64208;SDS011;50527;52.414;13.226;2023-05-16T12:20:00;4.57;;;0.77;;
64208;SDS011;50527;52.414;13.226;2023-05-16T12:22:29;2.72;;;0.45;;
64208;SDS011;50527;52.414;13.226;2023-05-16T12:24:57;4.47;;;0.40;;
64208;SDS011;50527;52.414;13.226;2023-05-16T12:27:24;3.78;;;0.80;;
64208;SDS011;50527;52.414;13.226;2023-05-16T12:29:50;7.22;;;1.02;;
64208;SDS011;50527;52.414;13.226;2023-05-16T12:32:19;6.00;;;0.60;;
64208;SDS011;50527;52.414;13.226;2023-05-16T12:34:49;4.10;;;0.70;;
64208;SDS011;50527;52.414;13.226;2023-05-16T12:37:16;3.85;;;0.60;;
64208;SDS011;50527;52.414;13.226;2023-05-16T12:39:41;6.63;;;0.82;;
64208;SDS011;50527;52.414;13.226;2023-05-16T12:42:07;7.55;;;0.50;;
64208;SDS011;50527;52.414;13.226;2023-05-16T12:44:33;4.85;;;0.70;;
64208;SDS011;50527;52.414;13.226;2023-05-16T12:47:00;4.85;;;0.77;;
64208;SDS011;50527;52.414;13.226;2023-05-16T12:49:26;6.38;;;0.60;;
64208;SDS011;50527;52.414;13.226;2023-05-16T12:51:53;7.07;;;0.85;;
64208;SDS011;50527;52.414;13.226;2023-05-16T12:54:19;4.75;;;0.60;;
64208;SDS011;50527;52.414;13.226;2023-05-16T12:56:46;4.68;;;0.40;;
64208;SDS011;50527;52.414;13.226;2023-05-16T12:59:12;4.47;;;0.50;;
64208;SDS011;50527;52.414;13.226;2023-05-16T13:01:38;5.93;;;0.77;;
64208;SDS011;50527;52.414;13.226;2023-05-16T13:04:05;5.72;;;0.55;;
64208;SDS011;50527;52.414;13.226;2023-05-16T13:06:30;4.25;;;0.50;;
64208;SDS011;50527;52.414;13.226;2023-05-16T13:08:56;5.07;;;0.50;;
64208;SDS011;50527;52.414;13.226;2023-05-16T13:11:22;4.00;;;0.63;;
64208;SDS011;50527;52.414;13.226;2023-05-16T13:13:48;3.63;;;0.70;;
64208;SDS011;50527;52.414;13.226;2023-05-16T13:16:14;3.60;;;0.57;;
64208;SDS011;50527;52.414;13.226;2023-05-16T13:18:40;4.82;;;0.45;;
64208;SDS011;50527;52.414;13.226;2023-05-16T13:21:05;2.30;;;0.45;;
64208;SDS011;50527;52.414;13.226;2023-05-16T13:23:31;4.93;;;0.63;;
64208;SDS011;50527;52.414;13.226;2023-05-16T13:25:57;4.90;;;0.70;;
64208;SDS011;50527;52.414;13.226;2023-05-16T13:28:23;2.78;;;0.45;;
64208;SDS011;50527;52.414;13.226;2023-05-16T13:30:49;3.08;;;0.45;;
64208;SDS011;50527;52.414;13.226;2023-05-16T13:33:15;4.47;;;0.45;;
64208;SDS011;50527;52.414;13.226;2023-05-16T13:35:41;3.47;;;0.47;;
64208;SDS011;50527;52.414;13.226;2023-05-16T13:38:07;5.70;;;0.70;;
64208;SDS011;50527;52.414;13.226;2023-05-16T13:40:33;8.18;;;0.80;;
64208;SDS011;50527;52.414;13.226;2023-05-16T13:42:59;3.08;;;0.40;;
64208;SDS011;50527;52.414;13.226;2023-05-16T13:45:25;2.85;;;0.47;;
64208;SDS011;50527;52.414;13.226;2023-05-16T13:47:51;1.73;;;0.32;;
64208;SDS011;50527;52.414;13.226;2023-05-16T13:50:17;3.03;;;0.40;;
64208;SDS011;50527;52.414;13.226;2023-05-16T13:52:42;4.43;;;0.50;;
64208;SDS011;50527;52.414;13.226;2023-05-16T13:55:08;5.70;;;0.40;;
64208;SDS011;50527;52.414;13.226;2023-05-16T13:57:34;4.75;;;0.52;;
64208;SDS011;50527;52.414;13.226;2023-05-16T13:59:59;3.33;;;0.70;;
64208;SDS011;50527;52.414;13.226;2023-05-16T14:02:25;4.05;;;0.50;;
64208;SDS011;50527;52.414;13.226;2023-05-16T14:04:51;5.55;;;0.57;;
64208;SDS011;50527;52.414;13.226;2023-05-16T14:07:17;2.75;;;0.60;;
64208;SDS011;50527;52.414;13.226;2023-05-16T14:09:43;4.10;;;0.77;;
64208;SDS011;50527;52.414;13.226;2023-05-16T14:12:09;6.88;;;0.40;;
64208;SDS011;50527;52.414;13.226;2023-05-16T14:14:35;4.15;;;0.40;;
64208;SDS011;50527;52.414;13.226;2023-05-16T14:17:01;3.00;;;0.55;;
64208;SDS011;50527;52.414;13.226;2023-05-16T14:19:27;4.20;;;0.45;;
64208;SDS011;50527;52.414;13.226;2023-05-16T14:21:53;7.28;;;0.45;;
64208;SDS011;50527;52.414;13.226;2023-05-16T14:24:19;2.42;;;0.50;;
64208;SDS011;50527;52.414;13.226;2023-05-16T14:26:45;3.58;;;0.80;;
64208;SDS011;50527;52.414;13.226;2023-05-16T14:29:10;4.15;;;0.50;;
64208;SDS011;50527;52.414;13.226;2023-05-16T14:31:37;6.00;;;0.52;;
64208;SDS011;50527;52.414;13.226;2023-05-16T14:34:02;2.22;;;0.40;;
64208;SDS011;50527;52.414;13.226;2023-05-16T14:36:28;4.40;;;0.40;;
64208;SDS011;50527;52.414;13.226;2023-05-16T14:38:54;3.00;;;0.30;;
64208;SDS011;50527;52.414;13.226;2023-05-16T14:41:20;3.03;;;0.35;;
64208;SDS011;50527;52.414;13.226;2023-05-16T14:43:46;3.55;;;0.38;;
64208;SDS011;50527;52.414;13.226;2023-05-16T14:46:12;4.32;;;0.35;;